Time;durP1;ratioP1;P1;durP2;ratioP2;P2;SDS_P1;SDS_P2;PMS_P1;PMS_P2;Temp;Humidity;BMP_temperature;BMP_pressure;BME280_temperature;BME280_humidity;BME280_pressure;Samples;Min_cycle;Max_cycle;Signal;HPM_P1;HPM_P2
2022/05/31 00:00:18;;;;;;;11.38;6.88;;;9.10;99.90;;;;;;5111995;28;20051;-65
2022/05/31 00:02:44;;;;;;;;;;;9.00;99.90;;;;;;5112331;28;20047;-66
2022/05/31 00:05:10;;;;;;;7.85;6.78;;;9.20;99.90;;;;;;5113034;28;19924;-65
2022/05/31 00:07:37;;;;;;;7.97;7.10;;;9.90;99.90;;;;;;5113106;28;20051;-64
2022/05/31 00:10:04;;;;;;;9.82;6.75;;;9.40;99.90;;;;;;5112973;28;20392;-65
2022/05/31 00:12:31;;;;;;;7.35;5.90;;;9.30;99.90;;;;;;5112949;28;20047;-65
2022/05/31 00:14:57;;;;;;;7.22;5.47;;;9.90;99.90;;;;;;5112884;28;20522;-65
2022/05/31 00:17:23;;;;;;;8.10;6.05;;;9.00;99.90;;;;;;5112729;28;20047;-65
2022/05/31 00:19:48;;;;;;;7.90;7.10;;;9.20;99.90;;;;;;5113048;28;20131;-65
2022/05/31 00:22:18;;;;;;;6.72;5.50;;;9.30;99.90;;;;;;5112714;28;20270;-66
2022/05/31 00:24:43;;;;;;;7.00;6.15;;;9.20;99.90;;;;;;5112852;28;20051;-65
2022/05/31 00:27:12;;;;;;;7.22;5.63;;;9.30;99.90;;;;;;5112781;28;20097;-66
2022/05/31 00:29:38;;;;;;;6.10;4.68;;;9.80;99.90;;;;;;5112234;28;20056;-65
2022/05/31 00:32:08;;;;;;;9.50;5.93;;;10.20;99.90;;;;;;5112729;28;20075;-65
2022/05/31 00:34:36;;;;;;;9.45;6.72;;;9.40;99.90;;;;;;5112706;28;20116;-64
2022/05/31 00:37:03;;;;;;;6.45;5.28;;;9.80;99.90;;;;;;5112668;28;20494;-65
2022/05/31 00:39:29;;;;;;;9.05;6.35;;;9.30;99.90;;;;;;5112638;28;20069;-64
2022/05/31 00:42:06;;;;;;;9.82;7.00;;;9.20;99.90;;;;;;5112640;28;20051;-65
2022/05/31 00:44:32;;;;;;;;;;;9.30;99.90;;;;;;5113006;28;20087;-65
2022/05/31 00:47:04;;;;;;;9.85;8.30;;;9.20;99.90;;;;;;5112464;28;19920;-64
2022/05/31 00:49:33;;;;;;;10.18;7.97;;;9.30;99.90;;;;;;5112688;28;20059;-65
2022/05/31 00:52:09;;;;;;;8.52;6.90;;;9.30;99.90;;;;;;5115964;28;20039;-64
2022/05/31 00:54:38;;;;;;;11.23;7.43;;;9.40;99.90;;;;;;5116823;28;20279;-66
2022/05/31 00:57:05;;;;;;;11.45;8.27;;;9.90;99.90;;;;;;5116604;28;20073;-65
2022/05/31 00:59:38;;;;;;;11.35;8.50;;;9.90;99.90;;;;;;5115458;28;20040;-65
2022/05/31 01:02:05;;;;;;;12.70;8.82;;;9.90;99.90;;;;;;5116627;28;20510;-65
2022/05/31 01:04:37;;;;;;;12.43;9.02;;;9.40;99.90;;;;;;5116498;28;20356;-66
2022/05/31 01:07:03;;;;;;;9.82;8.52;;;9.70;99.90;;;;;;5116397;28;20505;-65
2022/05/31 01:09:30;;;;;;;12.15;9.40;;;9.50;99.90;;;;;;5116259;27;20051;-65
2022/05/31 01:11:57;;;;;;;10.57;8.52;;;10.30;99.90;;;;;;5116220;28;20403;-65
2022/05/31 01:14:22;;;;;;;12.10;8.65;;;9.70;99.90;;;;;;5116226;28;20091;-65
2022/05/31 01:16:57;;;;;;;9.02;8.13;;;9.80;99.90;;;;;;5116317;28;20124;-65
2022/05/31 01:22:08;;;;;;;10.45;8.77;;;9.90;99.90;;;;;;5115967;28;20055;-65
2022/05/31 01:24:44;;;;;;;9.50;8.32;;;9.80;99.90;;;;;;5116467;28;20039;-65
2022/05/31 01:27:22;;;;;;;11.60;8.40;;;10.50;99.90;;;;;;5116082;27;20046;-65
2022/05/31 01:29:50;;;;;;;10.85;8.07;;;9.60;99.90;;;;;;5115785;28;20062;-65
2022/05/31 01:32:16;;;;;;;11.93;7.93;;;9.30;99.90;;;;;;5115961;28;20052;-65
2022/05/31 01:34:53;;;;;;;13.73;8.73;;;9.20;99.90;;;;;;5114614;28;20055;-65
2022/05/31 01:37:32;;;;;;;11.10;8.35;;;9.20;99.90;;;;;;5116097;28;20069;-65
2022/05/31 01:40:03;;;;;;;10.10;8.05;;;9.50;99.90;;;;;;5115783;28;20475;-65
2022/05/31 01:42:42;;;;;;;9.32;8.32;;;9.70;99.90;;;;;;5115757;28;20079;-65
2022/05/31 01:45:14;;;;;;;20.38;7.88;;;9.80;99.90;;;;;;5114531;28;20058;-65
2022/05/31 01:47:41;;;;;;;9.88;8.57;;;9.90;99.90;;;;;;5115923;28;20048;-65
2022/05/31 01:50:11;;;;;;;11.50;8.25;;;9.50;99.90;;;;;;5115626;28;20055;-65
2022/05/31 01:52:38;;;;;;;9.77;8.55;;;10.90;99.90;;;;;;5115608;28;20047;-66
2022/05/31 01:55:05;;;;;;;10.45;8.48;;;9.90;99.90;;;;;;5115526;28;20052;-66
2022/05/31 01:57:33;;;;;;;13.88;8.90;;;9.70;99.90;;;;;;5115396;28;20051;-66
2022/05/31 02:00:11;;;;;;;10.57;9.10;;;9.70;99.90;;;;;;5114541;28;20043;-66
2022/05/31 02:02:37;;;;;;;10.02;8.50;;;9.70;99.90;;;;;;5114045;28;20429;-66
2022/05/31 02:05:03;;;;;;;12.32;9.05;;;9.50;99.90;;;;;;5115326;28;20079;-65
2022/05/31 02:07:30;;;;;;;11.82;9.27;;;9.80;99.90;;;;;;5115314;28;20047;-66
2022/05/31 02:09:57;;;;;;;11.25;8.73;;;9.50;99.90;;;;;;5115020;28;20545;-68
2022/05/31 02:12:24;;;;;;;;;;;9.70;99.90;;;;;;5115517;27;20484;-65
2022/05/31 02:14:50;;;;;;;14.75;9.38;;;9.50;99.90;;;;;;5115118;28;19919;-64
2022/05/31 02:17:16;;;;;;;12.63;9.77;;;10.40;99.90;;;;;;5115269;28;20509;-66
2022/05/31 02:19:43;;;;;;;11.85;9.70;;;9.50;99.90;;;;;;5114942;28;20407;-65
2022/05/31 02:22:13;;;;;;;12.43;9.90;;;9.40;99.90;;;;;;5113624;28;20062;-65
2022/05/31 02:24:40;;;;;;;13.43;9.77;;;9.40;99.90;;;;;;5114860;28;20047;-65
2022/05/31 02:27:07;;;;;;;10.93;9.20;;;10.30;99.90;;;;;;5114988;28;20047;-65
2022/05/31 02:29:36;;;;;;;12.68;10.40;;;9.50;99.90;;;;;;5114784;28;20063;-65
2022/05/31 02:32:04;;;;;;;11.73;9.80;;;9.70;99.90;;;;;;5114859;28;20047;-64
2022/05/31 02:34:35;;;;;;;12.45;11.13;;;9.30;99.90;;;;;;5114845;28;20046;-64
2022/05/31 02:37:00;;;;;;;13.23;11.48;;;9.40;99.90;;;;;;5114676;28;20784;-65
2022/05/31 02:39:26;;;;;;;13.98;11.02;;;9.50;99.90;;;;;;5114485;28;20103;-65
2022/05/31 02:41:53;;;;;;;14.88;11.52;;;10.50;99.90;;;;;;5113780;28;20047;-65
2022/05/31 02:44:19;;;;;;;;;;;10.00;99.90;;;;;;5115077;28;20047;-65
2022/05/31 02:46:45;;;;;;;16.58;12.35;;;10.30;99.90;;;;;;5114662;28;19930;-65
2022/05/31 02:49:11;;;;;;;;;;;10.40;99.90;;;;;;5113782;28;20051;-66
2022/05/31 02:51:40;;;;;;;14.63;11.73;;;9.40;99.90;;;;;;5114443;27;19945;-65
2022/05/31 02:54:06;;;;;;;16.30;12.77;;;9.00;99.90;;;;;;5114309;28;20062;-66
2022/05/31 02:56:32;;;;;;;15.07;11.65;;;9.40;99.90;;;;;;5114402;28;20039;-64
2022/05/31 02:58:58;;;;;;;15.57;12.80;;;10.20;99.90;;;;;;5114236;28;20198;-64
2022/05/31 03:01:27;;;;;;;16.80;12.30;;;10.20;99.90;;;;;;5114232;28;20043;-64
2022/05/31 03:03:53;;;;;;;15.15;11.98;;;9.50;99.90;;;;;;5114279;28;20122;-64
2022/05/31 03:06:20;;;;;;;;;;;10.20;99.90;;;;;;5114383;28;20085;-65
2022/05/31 03:08:46;;;;;;;15.13;12.40;;;10.40;99.90;;;;;;5113954;28;20011;-64
2022/05/31 03:11:15;;;;;;;;;;;9.40;99.90;;;;;;5114509;28;20045;-66
2022/05/31 03:13:43;;;;;;;19.85;12.55;;;9.20;99.90;;;;;;5113296;28;20009;-66
2022/05/31 03:16:09;;;;;;;16.65;12.23;;;10.40;99.90;;;;;;5113853;28;20044;-64
2022/05/31 03:18:43;;;;;;;17.17;12.63;;;9.30;99.90;;;;;;5113893;28;20051;-64
2022/05/31 03:21:14;;;;;;;14.50;12.68;;;10.20;99.90;;;;;;5113781;28;20040;-65
2022/05/31 03:23:52;;;;;;;13.93;11.85;;;10.20;99.90;;;;;;5112653;28;20051;-65
2022/05/31 03:26:20;;;;;;;15.98;11.38;;;9.30;99.90;;;;;;5113875;28;20044;-65
2022/05/31 03:28:47;;;;;;;16.52;12.60;;;9.50;99.90;;;;;;5113580;27;20052;-65
2022/05/31 03:31:13;;;;;;;18.35;12.40;;;10.10;99.90;;;;;;5113509;28;20055;-65
2022/05/31 03:33:38;;;;;;;15.85;11.30;;;10.40;99.90;;;;;;5113402;28;20051;-65
2022/05/31 03:36:04;;;;;;;17.35;12.75;;;9.20;99.90;;;;;;5113671;28;20106;-65
2022/05/31 03:38:30;;;;;;;19.77;12.13;;;9.30;99.90;;;;;;5113621;28;20048;-65
2022/05/31 03:40:58;;;;;;;13.55;11.85;;;10.60;99.90;;;;;;5113484;28;20092;-64
2022/05/31 03:43:30;;;;;;;13.65;11.32;;;9.20;99.90;;;;;;5113498;28;20086;-65
2022/05/31 03:45:56;;;;;;;15.60;11.30;;;9.50;99.90;;;;;;5113269;28;20051;-65
2022/05/31 03:48:23;;;;;;;19.52;11.93;;;9.70;99.90;;;;;;5113535;27;20062;-64
2022/05/31 03:51:06;;;;;;;14.27;11.35;;;9.40;99.90;;;;;;5113164;28;20102;-65
2022/05/31 03:53:32;;;;;;;14.43;11.70;;;9.20;99.90;;;;;;5113171;28;20636;-66
2022/05/31 03:56:01;;;;;;;15.73;11.82;;;10.80;99.90;;;;;;5113210;28;20122;-65
2022/05/31 03:58:27;;;;;;;14.25;11.05;;;9.60;99.90;;;;;;5112883;28;20148;-65
2022/05/31 04:00:52;;;;;;;16.05;11.73;;;9.50;99.90;;;;;;5113337;28;20079;-65
2022/05/31 04:03:18;;;;;;;15.05;11.48;;;9.30;99.90;;;;;;5113127;28;20101;-65
2022/05/31 04:05:45;;;;;;;14.02;10.93;;;9.50;99.90;;;;;;5113256;28;20108;-65
2022/05/31 04:08:12;;;;;;;16.13;11.93;;;8.50;99.90;;;;;;5112939;28;20058;-65
2022/05/31 04:10:40;;;;;;;12.52;10.25;;;10.50;99.90;;;;;;5112854;28;20043;-65
2022/05/31 04:13:06;;;;;;;17.13;10.70;;;10.90;99.90;;;;;;5112878;28;20051;-65
2022/05/31 04:15:33;;;;;;;;;;;9.80;99.90;;;;;;5113491;28;20574;-65
2022/05/31 04:17:59;;;;;;;14.63;10.27;;;10.50;99.90;;;;;;5113043;28;19923;-65
2022/05/31 04:20:25;;;;;;;16.15;9.70;;;10.60;99.90;;;;;;5112889;28;20062;-65
2022/05/31 04:22:51;;;;;;;12.00;9.23;;;9.90;99.90;;;;;;5112935;28;20562;-65
2022/05/31 04:25:17;;;;;;;12.15;10.55;;;9.50;99.90;;;;;;5112675;28;20053;-64
2022/05/31 04:27:42;;;;;;;13.05;9.45;;;9.80;99.90;;;;;;5112805;28;20055;-65
2022/05/31 04:30:09;;;;;;;12.63;9.45;;;9.60;99.90;;;;;;5111120;28;20081;-66
2022/05/31 04:32:34;;;;;;;;;;;9.90;99.90;;;;;;5113205;28;20519;-66
2022/05/31 04:35:01;;;;;;;11.85;9.20;;;10.00;99.90;;;;;;5112792;28;20035;-65
2022/05/31 04:37:28;;;;;;;12.43;9.27;;;10.10;99.90;;;;;;5111653;28;20044;-66
2022/05/31 04:39:54;;;;;;;10.45;8.88;;;9.70;99.90;;;;;;5112773;28;20051;-65
2022/05/31 04:42:19;;;;;;;11.75;7.97;;;9.90;99.90;;;;;;5112493;28;20396;-65
2022/05/31 04:44:45;;;;;;;9.30;8.20;;;10.30;99.90;;;;;;5112794;28;20086;-65
2022/05/31 04:47:11;;;;;;;9.63;7.90;;;11.40;99.90;;;;;;5112677;28;20152;-65
2022/05/31 04:49:36;;;;;;;12.25;8.45;;;9.80;99.90;;;;;;5112600;28;20071;-65
2022/05/31 04:52:02;;;;;;;10.60;8.10;;;10.20;99.90;;;;;;5112462;28;20047;-65
2022/05/31 04:54:30;;;;;;;23.55;8.43;;;9.80;99.90;;;;;;5112485;28;20059;-66
2022/05/31 04:57:00;;;;;;;16.73;8.50;;;10.20;99.90;;;;;;5112446;28;20400;-65
2022/05/31 04:59:26;;;;;;;11.00;7.78;;;10.20;99.90;;;;;;5112539;28;20047;-65
2022/05/31 05:01:51;;;;;;;12.30;8.50;;;10.50;99.90;;;;;;5111463;28;20092;-65
2022/05/31 05:04:17;;;;;;;12.48;8.05;;;10.20;99.90;;;;;;5112414;28;20051;-65
2022/05/31 05:06:43;;;;;;;10.95;9.05;;;9.90;99.90;;;;;;5112495;28;20047;-67
2022/05/31 05:09:08;;;;;;;11.70;8.18;;;11.20;99.90;;;;;;5112300;28;20052;-65
2022/05/31 05:11:35;;;;;;;9.68;8.23;;;10.20;99.90;;;;;;5112155;28;20054;-66
2022/05/31 05:14:00;;;;;;;12.23;8.15;;;10.50;99.90;;;;;;5112515;28;20048;-65
2022/05/31 05:16:27;;;;;;;14.88;8.13;;;10.40;99.90;;;;;;5112532;28;20351;-65
2022/05/31 05:18:53;;;;;;;9.52;7.47;;;10.20;99.90;;;;;;5112455;28;20043;-65
2022/05/31 05:21:18;;;;;;;14.95;8.13;;;10.20;99.90;;;;;;5112260;28;20491;-66
2022/05/31 05:23:44;;;;;;;9.60;7.15;;;10.80;99.90;;;;;;5112308;28;20044;-65
2022/05/31 05:26:11;;;;;;;10.52;8.05;;;10.20;99.90;;;;;;5112100;28;20100;-67
2022/05/31 05:31:32;;;;;;;11.65;7.55;;;10.60;99.90;;;;;;5112347;28;20111;-66
2022/05/31 05:34:00;;;;;;;11.07;7.75;;;10.90;99.90;;;;;;5112156;28;20093;-66
2022/05/31 05:36:26;;;;;;;7.97;7.13;;;10.60;99.90;;;;;;5112770;28;20235;-66
2022/05/31 05:38:52;;;;;;;12.07;7.40;;;10.90;99.90;;;;;;5115688;28;20074;-66
2022/05/31 05:41:20;;;;;;;10.15;7.65;;;11.60;99.90;;;;;;5116004;28;20048;-66
2022/05/31 05:43:46;;;;;;;10.70;8.18;;;11.70;99.90;;;;;;5115621;28;20122;-65
2022/05/31 05:46:14;;;;;;;9.52;7.57;;;11.10;99.90;;;;;;5115668;28;20118;-66
2022/05/31 05:48:40;;;;;;;11.20;7.68;;;10.80;99.90;;;;;;5115565;27;20043;-66
2022/05/31 05:51:13;;;;;;;8.88;7.15;;;10.70;99.90;;;;;;5115387;28;20176;-65
2022/05/31 05:53:39;;;;;;;11.40;7.30;;;11.40;99.90;;;;;;5115744;28;20134;-67
2022/05/31 05:56:04;;;;;;;10.95;7.68;;;10.80;99.90;;;;;;5115506;28;20173;-65
2022/05/31 05:58:30;;;;;;;12.38;7.03;;;11.70;99.90;;;;;;5115544;28;20392;-66
2022/05/31 06:00:57;;;;;;;10.75;7.40;;;10.90;99.90;;;;;;5115379;28;20043;-66
2022/05/31 06:03:37;;;;;;;10.73;7.10;;;11.70;99.90;;;;;;5099415;28;20055;-65
2022/05/31 06:06:03;;;;;;;12.25;6.80;;;11.40;99.90;;;;;;5109124;27;21210;-67
2022/05/31 06:08:32;;;;;;;;;;;11.10;99.90;;;;;;5112066;28;20051;-66
2022/05/31 06:11:00;;;;;;;8.90;7.53;;;12.00;99.90;;;;;;5112465;28;19926;-66
2022/05/31 06:13:31;;;;;;;11.52;6.78;;;11.30;99.90;;;;;;5113809;28;20054;-67
2022/05/31 06:15:57;;;;;;;8.63;6.65;;;12.60;99.90;;;;;;5114185;28;20051;-68
2022/05/31 06:18:31;;;;;;;7.57;6.45;;;11.00;99.90;;;;;;5112070;28;20192;-66
2022/05/31 06:21:02;;;;;;;11.50;7.20;;;11.30;99.90;;;;;;5112195;27;20506;-66
2022/05/31 06:23:27;;;;;;;10.93;7.88;;;11.10;99.90;;;;;;5113807;28;20047;-65
2022/05/31 06:25:54;;;;;;;9.68;7.53;;;12.60;99.90;;;;;;5112808;28;20044;-69
2022/05/31 06:28:19;;;;;;;;;;;11.50;99.90;;;;;;5113671;28;20487;-66
2022/05/31 06:30:45;;;;;;;10.65;7.47;;;11.20;99.90;;;;;;5111264;28;19977;-66
2022/05/31 06:33:10;;;;;;;9.35;7.03;;;11.20;99.90;;;;;;5112775;27;20748;-66
2022/05/31 06:35:37;;;;;;;11.48;7.65;;;11.50;99.90;;;;;;5113019;28;20051;-66
2022/05/31 06:38:02;;;;;;;;;;;11.30;99.90;;;;;;5113566;28;20120;-66
2022/05/31 06:40:28;;;;;;;10.68;7.50;;;11.70;99.90;;;;;;5111174;28;19919;-70
2022/05/31 06:42:54;;;;;;;10.85;7.32;;;11.80;99.90;;;;;;5113707;28;20059;-66
2022/05/31 06:45:20;;;;;;;9.57;7.78;;;11.40;99.90;;;;;;5112642;28;20047;-67
2022/05/31 06:47:45;;;;;;;9.77;7.75;;;11.30;99.90;;;;;;5112109;28;20487;-66
2022/05/31 06:50:12;;;;;;;8.95;7.32;;;12.40;99.90;;;;;;5111833;28;20039;-66
2022/05/31 06:58:07;;;;;;;10.80;8.07;;;13.10;99.90;;;;;;5112765;28;20078;-67
2022/05/31 07:00:32;;;;;;;8.50;6.68;;;11.50;99.90;;;;;;5111632;28;20483;-65
2022/05/31 07:02:59;;;;;;;9.40;7.97;;;11.60;99.90;;;;;;5112536;28;20045;-66
2022/05/31 07:05:25;;;;;;;10.60;7.45;;;11.90;99.90;;;;;;5112200;28;20048;-67
2022/05/31 07:07:55;;;;;;;9.23;6.95;;;12.30;99.90;;;;;;5107051;28;20047;-66
2022/05/31 07:10:22;;;;;;;11.27;7.55;;;13.20;99.90;;;;;;5112779;28;20039;-66
2022/05/31 07:12:48;;;;;;;10.60;7.45;;;12.00;99.90;;;;;;5114079;28;20044;-66
2022/05/31 07:15:14;;;;;;;10.13;7.22;;;13.40;99.90;;;;;;5113886;28;20047;-66
2022/05/31 07:17:41;;;;;;;12.02;7.50;;;12.30;99.90;;;;;;5113605;28;20040;-67
2022/05/31 07:20:08;;;;;;;10.48;6.43;;;12.60;99.90;;;;;;5110747;28;20040;-67
2022/05/31 07:22:35;;;;;;;11.52;7.10;;;12.50;99.90;;;;;;5113471;28;20085;-67
2022/05/31 07:25:01;;;;;;;7.57;6.22;;;13.10;99.90;;;;;;5113444;28;20082;-67
2022/05/31 07:27:27;;;;;;;12.55;7.18;;;12.90;99.90;;;;;;5110721;28;20075;-80
2022/05/31 07:29:53;;;;;;;;;;;13.30;99.90;;;;;;5114050;27;20467;-66
2022/05/31 07:32:18;;;;;;;9.60;6.85;;;13.10;99.90;;;;;;5113648;28;19966;-67
2022/05/31 07:34:44;;;;;;;6.97;5.90;;;12.90;99.90;;;;;;5109179;28;20130;-67
2022/05/31 07:37:10;;;;;;;7.47;6.57;;;12.90;99.90;;;;;;5101902;28;20052;-67
2022/05/31 07:39:36;;;;;;;9.45;7.10;;;12.90;99.90;;;;;;5092948;28;20047;-67
2022/05/31 07:42:02;;;;;;;8.18;6.55;;;13.40;99.90;;;;;;5093172;28;20048;-68
2022/05/31 07:44:27;;;;;;;8.80;6.35;;;13.00;99.90;;;;;;5093190;28;20044;-68
2022/05/31 07:46:55;;;;;;;7.38;6.25;;;13.00;99.90;;;;;;5093181;28;20441;-67
2022/05/31 07:49:21;;;;;;;9.65;6.05;;;13.20;99.90;;;;;;5092957;28;20428;-67
2022/05/31 07:51:47;;;;;;;7.38;6.22;;;13.10;99.90;;;;;;5092957;28;20040;-67
2022/05/31 07:54:13;;;;;;;8.50;5.97;;;13.20;99.90;;;;;;5092702;28;20048;-66
2022/05/31 07:56:39;;;;;;;8.10;6.53;;;13.60;99.90;;;;;;5092962;28;20047;-66
2022/05/31 07:59:05;;;;;;;10.15;6.90;;;12.80;99.90;;;;;;5092609;28;20472;-66
2022/05/31 08:01:30;;;;;;;;;;;13.00;99.90;;;;;;5093277;28;20484;-66
2022/05/31 08:03:56;;;;;;;8.88;6.95;;;13.30;99.90;;;;;;5092880;28;19927;-67
2022/05/31 08:06:23;;;;;;;;;;;12.90;99.90;;;;;;5093058;28;20557;-66
2022/05/31 08:08:50;;;;;;;9.32;6.88;;;12.90;99.90;;;;;;5092545;28;20014;-67
2022/05/31 08:11:23;;;;;;;8.48;7.15;;;13.40;99.90;;;;;;5092584;28;20105;-67
2022/05/31 08:13:49;;;;;;;7.40;6.55;;;13.00;99.90;;;;;;5092826;28;20456;-67
2022/05/31 08:16:17;;;;;;;8.15;7.28;;;12.90;99.90;;;;;;5092319;28;20063;-68
2022/05/31 08:18:44;;;;;;;9.27;6.63;;;12.90;99.90;;;;;;5092484;28;20040;-67
2022/05/31 08:21:13;;;;;;;8.32;6.88;;;12.80;99.90;;;;;;5092511;28;20055;-67
2022/05/31 08:23:39;;;;;;;9.77;6.55;;;12.80;99.90;;;;;;5092348;28;20048;-67
2022/05/31 08:26:05;;;;;;;;;;;12.80;99.90;;;;;;5093049;28;20108;-66
2022/05/31 08:28:32;;;;;;;8.50;6.70;;;12.70;99.90;;;;;;5092376;28;20365;-67
2022/05/31 08:31:01;;;;;;;8.68;7.32;;;12.80;99.90;;;;;;5092167;28;20458;-67
2022/05/31 08:33:27;;;;;;;7.97;6.70;;;13.00;99.90;;;;;;5092324;28;20122;-67
2022/05/31 08:35:54;;;;;;;10.02;6.80;;;12.70;99.90;;;;;;5092311;28;20103;-67
2022/05/31 08:38:20;;;;;;;7.60;6.72;;;13.20;99.90;;;;;;5092239;28;20492;-67
2022/05/31 08:41:04;;;;;;;;;;;13.00;99.90;;;;;;5092879;28;20097;-67
2022/05/31 08:43:36;;;;;;;10.68;7.03;;;12.70;99.90;;;;;;5092353;28;19920;-67
2022/05/31 08:46:06;;;;;;;11.13;6.40;;;13.30;99.90;;;;;;5092257;28;20070;-67
2022/05/31 08:48:35;;;;;;;9.35;7.18;;;13.40;99.90;;;;;;5092180;28;20044;-67
2022/05/31 08:57:01;;;;;;;8.63;6.78;;;13.50;99.90;;;;;;5092190;28;20055;-67
2022/05/31 08:59:58;;;;;;;8.75;6.90;;;14.20;99.90;;;;;;5092191;28;20044;-67
2022/05/31 09:02:53;;;;;;;8.60;6.20;;;14.20;99.90;;;;;;5092040;28;20134;-68
2022/05/31 09:05:29;;;;;;;7.15;6.25;;;14.30;99.90;;;;;;5087166;28;20487;-68
2022/05/31 09:08:12;;;;;;;7.75;6.53;;;14.80;99.90;;;;;;5090854;28;20048;-67
2022/05/31 09:10:54;;;;;;;7.38;6.05;;;15.00;99.90;;;;;;5092029;28;20040;-68
2022/05/31 09:13:54;;;;;;;7.40;5.85;;;14.80;99.90;;;;;;5095832;28;20505;-67
2022/05/31 09:16:34;;;;;;;8.23;5.63;;;15.10;99.90;;;;;;5095889;28;20074;-67
2022/05/31 09:19:04;;;;;;;9.82;5.90;;;15.40;99.90;;;;;;5095908;28;20048;-67
2022/05/31 09:21:46;;;;;;;7.82;6.18;;;15.80;99.90;;;;;;5095732;28;20052;-67
2022/05/31 09:24:14;;;;;;;7.93;6.47;;;15.70;99.90;;;;;;5095627;28;20040;-67
2022/05/31 09:26:51;;;;;;;7.68;5.55;;;16.00;99.90;;;;;;5095856;28;20048;-67
2022/05/31 09:29:47;;;;;;;7.63;5.50;;;16.40;99.90;;;;;;5095480;28;20066;-67
2022/05/31 09:32:16;;;;;;;8.43;5.60;;;16.70;99.90;;;;;;5090769;28;20481;-67
2022/05/31 09:35:17;;;;;;;9.75;5.88;;;16.40;99.90;;;;;;5095814;28;20123;-67
2022/05/31 09:37:52;;;;;;;8.23;5.60;;;16.70;99.90;;;;;;5095552;28;20123;-68
2022/05/31 09:40:39;;;;;;;8.25;6.00;;;16.60;99.90;;;;;;5095469;28;20048;-67
2022/05/31 09:43:30;;;;;;;8.35;5.25;;;16.90;99.90;;;;;;5095306;28;20048;-67
2022/05/31 09:46:11;;;;;;;8.00;5.00;;;17.10;99.90;;;;;;5095454;28;20059;-69
2022/05/31 09:48:51;;;;;;;7.85;5.30;;;17.20;99.90;;;;;;5094455;28;20040;-69
2022/05/31 09:51:38;;;;;;;6.70;4.93;;;17.20;99.90;;;;;;5095112;28;20051;-68
2022/05/31 09:57:07;;;;;;;7.43;4.75;;;17.00;99.90;;;;;;5095232;28;20058;-69
2022/05/31 09:59:35;;;;;;;7.68;5.72;;;16.60;99.90;;;;;;5095026;28;20093;-68
2022/05/31 10:02:25;;;;;;;7.78;4.70;;;16.70;99.90;;;;;;5095293;28;20048;-68
2022/05/31 10:05:14;;;;;;;7.13;5.03;;;16.50;99.90;;;;;;5095014;28;20492;-67
2022/05/31 10:07:40;;;;;;;9.07;5.40;;;16.50;99.90;;;;;;5104901;28;20124;-68
2022/05/31 10:10:27;;;;;;;;;;;16.90;99.90;;;;;;5113792;28;20051;-67
2022/05/31 10:12:59;;;;;;;7.65;5.03;;;16.80;99.90;;;;;;5113222;28;20339;-68
2022/05/31 10:15:40;;;;;;;11.43;5.00;;;16.80;99.90;;;;;;5115200;28;20096;-68
2022/05/31 10:18:09;;;;;;;7.57;4.55;;;17.20;99.90;;;;;;5115086;28;20055;-68
2022/05/31 10:20:35;;;;;;;9.63;5.60;;;17.60;99.90;;;;;;5114905;28;20441;-68
2022/05/31 10:23:13;;;;;;;6.90;5.22;;;17.60;99.90;;;;;;5114877;28;20422;-68
2022/05/31 10:25:55;;;;;;;8.75;5.57;;;17.70;99.90;;;;;;5115096;28;20148;-67
2022/05/31 10:28:31;;;;;;;10.73;5.60;;;17.80;99.90;;;;;;5115133;28;20073;-72
2022/05/31 10:31:22;;;;;;;7.20;5.35;;;17.60;99.90;;;;;;5115017;28;20070;-68
2022/05/31 10:33:57;;;;;;;6.97;4.85;;;17.70;99.90;;;;;;5109602;28;20515;-68
2022/05/31 10:36:26;;;;;;;8.18;5.15;;;17.50;99.90;;;;;;5114957;28;20101;-69
2022/05/31 10:38:52;;;;;;;6.40;4.72;;;17.70;99.90;;;;;;5114680;28;20047;-68
2022/05/31 10:41:29;;;;;;;7.78;4.63;;;17.60;99.90;;;;;;5114599;27;20123;-68
2022/05/31 10:44:22;;;;;;;6.45;4.03;;;17.40;99.90;;;;;;5114716;28;20134;-67
2022/05/31 10:46:51;;;;;;;8.18;4.40;;;17.80;99.90;;;;;;5114754;28;20456;-68
2022/05/31 10:49:22;;;;;;;9.70;4.60;;;17.60;99.90;;;;;;5114532;28;20090;-68
2022/05/31 10:51:50;;;;;;;9.43;4.47;;;17.70;99.90;;;;;;5114340;28;20062;-68
2022/05/31 10:54:46;;;;;;;6.63;4.63;;;17.30;99.90;;;;;;5114623;28;20051;-68
2022/05/31 10:57:32;;;;;;;7.68;4.35;;;17.40;99.90;;;;;;5114347;28;20422;-68
2022/05/31 11:00:28;;;;;;;7.63;4.68;;;17.00;99.90;;;;;;5114251;28;20552;-68
2022/05/31 11:03:16;;;;;;;8.38;4.78;;;16.70;99.90;;;;;;5114486;28;20399;-68
2022/05/31 11:05:54;;;;;;;7.85;4.88;;;16.70;99.90;;;;;;5114195;28;20146;-68
2022/05/31 11:11:45;;;;;;;10.38;5.28;;;16.80;99.90;;;;;;5114218;27;20059;-69
2022/05/31 11:14:43;;;;;;;8.20;6.03;;;16.00;99.90;;;;;;5114052;27;20143;-68
2022/05/31 11:17:46;;;;;;;13.73;7.28;;;16.30;99.90;;;;;;5114125;28;20537;-69
2022/05/31 11:20:19;;;;;;;12.70;8.00;;;16.10;99.90;;;;;;5113955;28;20040;-68
2022/05/31 11:22:57;;;;;;;12.15;7.30;;;15.70;99.90;;;;;;5113874;28;20043;-68
2022/05/31 11:25:42;;;;;;;12.35;8.07;;;15.50;99.90;;;;;;5113960;28;20051;-68
2022/05/31 11:28:28;;;;;;;10.30;7.70;;;15.50;99.90;;;;;;5114048;28;20093;-68
2022/05/31 11:31:12;;;;;;;15.85;8.68;;;15.40;99.90;;;;;;5113444;28;20051;-67
2022/05/31 11:33:53;;;;;;;10.55;7.55;;;16.70;99.90;;;;;;5113631;28;20070;-66
2022/05/31 11:36:27;;;;;;;8.55;7.65;;;15.40;99.90;;;;;;5113302;28;20055;-67
2022/05/31 11:39:07;;;;;;;11.50;7.53;;;15.60;99.90;;;;;;5113633;28;20449;-67
2022/05/31 11:41:59;;;;;;;7.95;6.72;;;15.80;99.90;;;;;;5113479;28;20099;-67
2022/05/31 11:44:54;;;;;;;13.43;6.75;;;16.00;99.90;;;;;;5113470;28;20043;-66
2022/05/31 11:47:37;;;;;;;8.35;6.13;;;15.90;99.90;;;;;;5113467;28;20090;-67
2022/05/31 11:50:26;;;;;;;10.90;7.13;;;16.00;99.90;;;;;;5113251;28;20441;-67
2022/05/31 11:53:22;;;;;;;9.88;6.63;;;16.10;99.90;;;;;;5113388;28;20048;-66
2022/05/31 11:56:13;;;;;;;8.40;6.30;;;16.40;99.90;;;;;;5113263;28;20120;-67
2022/05/31 11:58:47;;;;;;;9.05;5.63;;;17.10;99.90;;;;;;5093901;28;20070;-67
2022/05/31 12:01:19;;;;;;;7.47;5.63;;;17.10;99.90;;;;;;5113337;28;20050;-66
2022/05/31 12:03:49;;;;;;;7.45;6.00;;;17.20;99.90;;;;;;5113319;28;20127;-67
2022/05/31 12:06:31;;;;;;;7.07;5.90;;;17.30;99.90;;;;;;5113096;28;20383;-67
2022/05/31 12:09:13;;;;;;;10.90;6.97;;;17.80;99.90;;;;;;5105553;28;20044;-67
2022/05/31 12:11:54;;;;;;;8.32;5.65;;;17.90;99.90;;;;;;5092691;28;20582;-67
2022/05/31 12:14:23;;;;;;;10.13;6.03;;;18.30;99.90;;;;;;5092656;28;20044;-67
2022/05/31 12:16:50;;;;;;;7.40;5.60;;;18.80;99.90;;;;;;5092609;28;20048;-68
2022/05/31 12:19:21;;;;;;;7.82;4.82;;;18.90;99.90;;;;;;5092299;28;20529;-68
2022/05/31 12:22:10;;;;;;;6.80;4.93;;;19.20;99.90;;;;;;5092659;28;20123;-67
2022/05/31 12:24:51;;;;;;;8.13;5.05;;;19.40;99.90;;;;;;5092570;28;20122;-67
2022/05/31 12:27:22;;;;;;;6.45;4.90;;;20.00;99.90;;;;;;5092380;28;20050;-67
2022/05/31 12:30:26;;;;;;;18.17;7.72;;;19.80;99.90;;;;;;5092079;28;20052;-66
2022/05/31 12:32:54;;;;;;;7.18;4.80;;;19.80;99.90;;;;;;5080914;28;20056;-67
2022/05/31 12:35:31;;;;;;;8.68;5.15;;;19.80;99.90;;;;;;5092361;28;20048;-67
2022/05/31 12:37:59;;;;;;;8.10;4.90;;;19.40;99.90;;;;;;5092272;28;20044;-68
2022/05/31 12:40:34;;;;;;;12.07;5.10;;;19.40;99.90;;;;;;5092361;28;20127;-67
2022/05/31 12:43:12;;;;;;;9.80;5.03;;;19.40;99.90;;;;;;5092461;28;20048;-67
2022/05/31 12:45:39;;;;;;;8.00;4.85;;;19.50;99.90;;;;;;5094061;28;20635;-67
2022/05/31 12:48:25;;;;;;;8.13;5.00;;;19.50;99.90;;;;;;5116814;28;20047;-70
2022/05/31 12:50:57;;;;;;;7.28;4.70;;;19.80;99.90;;;;;;5116944;28;20092;-68
2022/05/31 12:53:44;;;;;;;6.68;5.05;;;20.00;99.90;;;;;;5116831;28;20051;-67
2022/05/31 12:56:29;;;;;;;7.45;5.07;;;20.00;99.90;;;;;;5109234;28;20079;-64
2022/05/31 12:58:56;;;;;;;9.57;5.20;;;20.30;99.90;;;;;;5113624;28;20047;-67
2022/05/31 13:01:24;;;;;;;7.28;4.70;;;20.20;99.90;;;;;;5116273;28;20048;-67
2022/05/31 13:03:50;;;;;;;7.25;5.07;;;20.80;99.90;;;;;;5116374;28;20083;-65
2022/05/31 13:06:37;;;;;;;6.75;4.40;;;20.60;99.90;;;;;;5112842;28;20458;-68
2022/05/31 13:09:37;;;;;;;7.43;4.68;;;21.20;99.90;;;;;;5106303;28;20047;-68
2022/05/31 13:20:44;;;;;;;6.93;3.97;;;19.70;99.90;;;;;;5116206;28;20062;-68
2022/05/31 13:23:18;;;;;;;6.95;4.30;;;19.00;99.90;;;;;;5116298;28;20054;-68
2022/05/31 13:26:09;;;;;;;7.47;4.60;;;18.70;99.90;;;;;;5116202;28;20458;-68
2022/05/31 13:28:39;;;;;;;7.68;4.47;;;18.80;99.90;;;;;;5109984;28;20060;-68
2022/05/31 13:31:13;;;;;;;5.95;4.35;;;18.50;99.90;;;;;;5114485;28;20479;-68
2022/05/31 13:33:39;;;;;;;8.50;5.13;;;18.20;99.90;;;;;;5115941;28;20436;-68
2022/05/31 13:36:16;;;;;;;9.45;4.72;;;18.00;99.90;;;;;;5098640;28;20048;-69
2022/05/31 13:38:45;;;;;;;7.93;4.10;;;17.70;99.90;;;;;;5095720;28;20071;-68
2022/05/31 13:41:14;;;;;;;12.82;4.13;;;17.30;99.90;;;;;;5095562;28;20380;-68